Time;durP1;ratioP1;P1;durP2;ratioP2;P2;SDS_P1;SDS_P2;PMS_P1;PMS_P2;Temp;Humidity;BMP_temperature;BMP_pressure;BME280_temperature;BME280_humidity;BME280_pressure;Samples;Min_cycle;Max_cycle;Signal;HPM_P1;HPM_P2
2024/01/07 00:01:55;;;;;;;5.30;3.00;;;;;;;24.37;32.26;98846.72;4985411;28;20034;-52
2024/01/07 00:04:20;;;;;;;5.65;3.30;;;;;;;24.37;32.16;98841.94;4985403;28;20485;-55
2024/01/07 00:06:46;;;;;;;5.10;2.92;;;;;;;24.38;31.99;98848.19;4987103;28;20017;-56
2024/01/07 00:09:12;;;;;;;4.90;2.80;;;;;;;24.40;32.16;98851.19;4979042;28;20053;-54
2024/01/07 00:11:38;;;;;;;5.00;2.95;;;;;;;24.37;32.11;98852.97;4985778;28;20023;-53
2024/01/07 00:14:03;;;;;;;5.43;3.08;;;;;;;24.36;32.22;98856.25;4983453;28;20100;-53
2024/01/07 00:16:28;;;;;;;5.05;2.75;;;;;;;24.35;32.24;98857.50;4987178;28;20030;-57
2024/01/07 00:18:54;;;;;;;5.10;2.75;;;;;;;24.35;32.22;98847.22;4981157;28;20032;-54
2024/01/07 00:21:19;;;;;;;5.25;2.80;;;;;;;24.37;32.23;98855.00;4985588;28;20026;-58
2024/01/07 00:23:44;;;;;;;5.22;2.67;;;;;;;24.34;32.23;98850.47;4992400;28;20071;-56
2024/01/07 00:26:10;;;;;;;4.68;2.58;;;;;;;24.38;32.21;98854.47;4986025;28;20026;-57
2024/01/07 00:28:35;;;;;;;4.90;2.70;;;;;;;24.35;32.19;98861.00;4980875;28;20046;-56
2024/01/07 00:31:00;;;;;;;4.50;2.50;;;;;;;24.35;32.25;98855.50;4986769;28;20029;-49
2024/01/07 00:33:26;;;;;;;5.00;2.72;;;;;;;24.36;32.25;98859.00;4995404;28;20447;-52
2024/01/07 00:35:51;;;;;;;4.68;2.40;;;;;;;24.34;31.83;98864.28;4989366;28;20072;-57
2024/01/07 00:38:16;;;;;;;4.80;2.60;;;;;;;24.34;32.04;98864.28;4988302;28;20045;-54
2024/01/07 00:40:42;;;;;;;4.65;2.40;;;;;;;24.31;32.30;98866.03;4983987;28;20049;-56
2024/01/07 00:43:07;;;;;;;4.50;2.55;;;;;;;24.30;32.22;98859.03;4984154;28;20535;-57
2024/01/07 00:45:33;;;;;;;4.88;2.70;;;;;;;24.31;32.21;98862.53;4982730;28;20037;-55
2024/01/07 00:47:58;;;;;;;4.50;2.35;;;;;;;24.29;31.96;98859.53;4982856;28;20090;-56
2024/01/07 00:50:23;;;;;;;4.70;2.30;;;;;;;24.30;32.00;98864.53;4976919;28;20037;-58
2024/01/07 00:52:49;;;;;;;4.13;2.20;;;;;;;24.30;32.14;98864.53;4982280;28;20026;-58
2024/01/07 00:55:14;;;;;;;4.72;2.40;;;;;;;24.31;31.90;98873.56;4983175;28;20080;-54
2024/01/07 00:57:40;;;;;;;5.03;2.40;;;;;;;24.32;32.04;98870.28;4988143;28;20030;-57
2024/01/07 01:00:06;;;;;;;4.07;2.05;;;;;;;24.30;32.08;98875.56;4982003;28;20022;-54
2024/01/07 01:02:32;;;;;;;4.35;2.13;;;;;;;24.30;31.97;98870.06;4985652;28;20038;-55
2024/01/07 01:04:57;;;;;;;4.13;2.10;;;;;;;24.27;31.98;98871.06;4987679;28;20030;-56
2024/01/07 01:07:23;;;;;;;4.35;2.15;;;;;;;24.29;32.05;98865.78;4982196;28;20029;-55
2024/01/07 01:09:48;;;;;;;4.20;2.15;;;;;;;24.31;32.14;98871.56;4980970;28;20129;-58
2024/01/07 01:12:13;;;;;;;4.40;2.13;;;;;;;24.30;32.03;98866.53;4981538;28;20368;-53
2024/01/07 01:14:39;;;;;;;3.72;1.90;;;;;;;24.30;31.93;98875.56;4980817;28;20081;-54
2024/01/07 01:17:04;;;;;;;4.60;2.10;;;;;;;24.30;31.96;98875.56;4979238;28;20019;-55
2024/01/07 01:19:29;;;;;;;4.07;1.90;;;;;;;24.29;32.06;98878.84;4991401;28;20604;-55
2024/01/07 01:21:55;;;;;;;4.55;2.15;;;;;;;24.29;31.94;98871.31;4987219;28;20032;-54
2024/01/07 01:24:20;;;;;;;3.75;1.80;;;;;;;24.29;31.99;98870.56;4982216;28;20046;-52
2024/01/07 01:26:45;;;;;;;3.72;1.83;;;;;;;24.30;32.06;98878.31;4980623;28;20149;-56
2024/01/07 01:29:11;;;;;;;4.15;1.80;;;;;;;24.31;31.93;98876.31;4982198;28;20360;-56
2024/01/07 01:31:36;;;;;;;4.07;2.00;;;;;;;24.28;32.04;98872.56;4983911;28;20026;-56
2024/01/07 01:34:02;;;;;;;3.90;1.98;;;;;;;24.30;32.03;98880.34;4981966;28;20027;-56
2024/01/07 01:36:27;;;;;;;3.42;1.70;;;;;;;24.28;32.15;98875.31;4986350;28;20018;-54
2024/01/07 01:38:52;;;;;;;3.80;1.70;;;;;;;24.28;32.14;98874.56;4980729;28;20027;-55
2024/01/07 01:41:18;;;;;;;3.50;1.73;;;;;;;24.29;32.10;98876.81;4985284;28;20057;-53
2024/01/07 01:43:43;;;;;;;3.70;1.70;;;;;;;24.30;32.16;98875.56;4984348;28;20497;-58
2024/01/07 01:46:08;;;;;;;3.40;1.67;;;;;;;24.29;31.96;98879.59;4988975;28;20048;-54
2024/01/07 01:48:35;;;;;;;4.10;1.92;;;;;;;24.29;32.09;98878.84;4982782;28;20032;-56
2024/01/07 01:51:00;;;;;;;3.20;1.53;;;;;;;24.27;32.12;98884.84;4988952;28;20942;-57
2024/01/07 01:53:26;;;;;;;3.58;1.80;;;;;;;24.30;32.13;98888.59;4987035;28;20023;-56
2024/01/07 01:55:51;;;;;;;3.63;1.73;;;;;;;24.27;32.08;98887.59;4985084;28;20517;-56
2024/01/07 01:58:17;;;;;;;3.80;1.70;;;;;;;24.27;32.04;98892.38;4983363;28;20053;-53
2024/01/07 02:00:42;;;;;;;3.38;1.70;;;;;;;24.28;32.22;98894.63;5014360;28;20041;-56
2024/01/07 02:03:07;;;;;;;3.22;1.60;;;;;;;24.27;32.07;98898.63;4997861;28;20482;-53
2024/01/07 02:05:33;;;;;;;3.78;1.80;;;;;;;24.32;32.05;98900.63;4989401;28;20030;-54
2024/01/07 02:07:58;;;;;;;3.58;1.60;;;;;;;24.32;32.27;98892.38;4985785;28;20061;-53
2024/01/07 02:10:23;;;;;;;3.47;1.65;;;;;;;24.31;32.27;98892.88;4995513;28;20022;-57
2024/01/07 02:12:49;;;;;;;3.40;1.70;;;;;;;24.29;32.22;98895.38;5017164;28;20480;-54
2024/01/07 02:15:15;;;;;;;3.03;1.42;;;;;;;24.33;32.17;98890.34;4986599;28;20022;-56
2024/01/07 02:17:40;;;;;;;4.07;1.60;;;;;;;24.31;32.14;98890.09;4986622;28;20501;-55
2024/01/07 02:20:06;;;;;;;3.03;1.50;;;;;;;24.29;32.19;98887.84;4985735;28;20026;-53
2024/01/07 02:22:31;;;;;;;3.53;1.63;;;;;;;24.31;32.13;98890.84;4986017;28;20058;-52
2024/01/07 02:24:57;;;;;;;3.22;1.52;;;;;;;24.32;32.11;98895.13;4983098;28;20377;-55
2024/01/07 02:27:22;;;;;;;3.70;1.60;;;;;;;24.30;32.14;98886.59;4986478;28;20040;-52
2024/01/07 02:29:47;;;;;;;4.25;1.70;;;;;;;24.33;32.24;98891.09;4984924;28;20031;-52
2024/01/07 02:32:13;;;;;;;3.35;1.60;;;;;;;24.30;32.18;98897.63;4991085;28;20467;-56
2024/01/07 02:34:38;;;;;;;3.30;1.58;;;;;;;24.30;32.24;98894.88;4983601;28;20053;-52
2024/01/07 02:37:03;;;;;;;3.53;1.60;;;;;;;24.32;32.18;98905.41;4989746;28;20075;-55
2024/01/07 02:39:29;;;;;;;3.55;1.65;;;;;;;24.32;32.12;98902.63;4985867;28;20034;-56
2024/01/07 02:41:54;;;;;;;3.13;1.60;;;;;;;24.29;32.18;98901.66;4987065;28;20084;-57
2024/01/07 02:44:19;;;;;;;2.97;1.48;;;;;;;24.30;32.24;98905.16;4988564;28;20117;-55
2024/01/07 02:46:46;;;;;;;4.38;1.58;;;;;;;24.29;32.25;98906.41;4982855;28;20072;-55
2024/01/07 02:49:12;;;;;;;3.97;1.60;;;;;;;24.30;32.20;98905.16;4982757;28;20030;-56
2024/01/07 02:51:37;;;;;;;3.58;1.60;;;;;;;24.30;32.06;98908.66;4984374;28;20475;-56
2024/01/07 02:54:03;;;;;;;3.47;1.60;;;;;;;24.32;32.15;98892.38;4981598;28;20034;-55
2024/01/07 02:56:28;;;;;;;2.85;1.42;;;;;;;24.32;32.21;98906.16;4987377;28;20410;-52
2024/01/07 02:58:53;;;;;;;3.42;1.60;;;;;;;24.33;32.12;98898.63;4989388;28;20019;-55
2024/01/07 03:01:21;;;;;;;3.10;1.50;;;;;;;24.33;32.05;98906.91;4987183;28;20031;-52
2024/01/07 03:03:47;;;;;;;2.83;1.40;;;;;;;24.33;32.11;98907.66;4988125;28;20034;-52
2024/01/07 03:06:12;;;;;;;3.53;1.55;;;;;;;24.32;32.08;98908.16;4988102;28;20044;-53
2024/01/07 03:08:37;;;;;;;2.80;1.45;;;;;;;24.34;32.51;98908.41;4984787;28;20026;-54
2024/01/07 03:11:06;;;;;;;3.40;1.40;;;;;;;24.32;32.02;98908.91;4988132;28;20022;-54
2024/01/07 03:13:32;;;;;;;2.72;1.40;;;;;;;24.33;32.10;98907.66;4986110;28;20482;-57
2024/01/07 03:15:57;;;;;;;3.20;1.55;;;;;;;24.32;32.19;98911.66;4980632;28;20045;-53
2024/01/07 03:18:22;;;;;;;2.90;1.42;;;;;;;24.32;32.14;98906.16;4987545;28;20026;-54
2024/01/07 03:20:48;;;;;;;2.60;1.30;;;;;;;24.33;32.19;98918.69;4986912;28;20034;-55
2024/01/07 03:23:13;;;;;;;2.83;1.40;;;;;;;24.33;32.21;98915.94;4991000;28;20028;-58
2024/01/07 03:25:38;;;;;;;2.97;1.50;;;;;;;24.35;32.35;98916.19;4985437;28;20035;-56
2024/01/07 03:28:04;;;;;;;3.05;1.30;;;;;;;24.35;32.32;98916.19;4984214;28;20033;-53
2024/01/07 03:30:29;;;;;;;3.17;1.40;;;;;;;24.36;32.32;98914.91;4981953;28;20110;-54
2024/01/07 03:32:55;;;;;;;2.97;1.40;;;;;;;24.35;32.05;98913.41;4988168;28;20121;-54
2024/01/07 03:35:21;;;;;;;2.70;1.30;;;;;;;24.37;32.16;98924.69;4981739;28;20046;-52
2024/01/07 03:37:47;;;;;;;3.17;1.30;;;;;;;24.38;32.24;98914.38;4982819;28;20916;-53
2024/01/07 03:40:12;;;;;;;2.95;1.33;;;;;;;24.38;32.30;98917.91;4986237;28;20027;-56
2024/01/07 03:42:37;;;;;;;2.38;1.20;;;;;;;24.41;32.25;98913.38;4988897;28;20521;-56
2024/01/07 03:45:04;;;;;;;2.85;1.52;;;;;;;24.44;32.11;98917.13;4986094;28;20072;-55
2024/01/07 03:47:30;;;;;;;2.63;1.30;;;;;;;24.42;32.28;98914.13;4985401;28;20026;-55
2024/01/07 03:49:55;;;;;;;2.85;1.30;;;;;;;24.44;32.30;98917.13;4986068;28;20064;-55
2024/01/07 03:52:20;;;;;;;2.95;1.42;;;;;;;24.44;32.48;98928.16;4982457;28;20084;-54
2024/01/07 03:54:46;;;;;;;2.55;1.20;;;;;;;24.47;32.35;98927.16;4982261;28;20028;-56
2024/01/07 03:57:11;;;;;;;3.03;1.30;;;;;;;24.50;32.32;98926.91;4980821;28;20045;-56
2024/01/07 03:59:36;;;;;;;2.88;1.30;;;;;;;24.52;32.42;98918.13;4983721;28;20037;-54
2024/01/07 04:02:02;;;;;;;2.05;1.20;;;;;;;24.55;32.41;98917.84;4985187;28;20482;-55
2024/01/07 04:04:27;;;;;;;2.33;1.25;;;;;;;24.55;32.23;98928.13;4983372;28;20030;-54
2024/01/07 04:06:52;;;;;;;3.00;1.30;;;;;;;24.60;32.21;98924.59;4992789;28;20026;-57
2024/01/07 04:09:18;;;;;;;2.38;1.20;;;;;;;24.59;32.38;98928.59;4980737;28;20034;-55
2024/01/07 04:11:43;;;;;;;1.77;1.02;;;;;;;24.60;32.34;98930.09;4984244;28;20459;-53
2024/01/07 04:14:09;;;;;;;2.35;1.20;;;;;;;24.64;32.24;98930.59;4984662;28;20026;-53
2024/01/07 04:16:34;;;;;;;2.72;1.30;;;;;;;24.66;32.24;98928.84;4982280;28;20026;-52
2024/01/07 04:18:59;;;;;;;2.88;1.40;;;;;;;24.67;32.19;98924.06;4979110;28;20073;-56
2024/01/07 04:21:25;;;;;;;2.22;1.10;;;;;;;24.67;32.34;98922.06;4980730;28;20036;-53
2024/01/07 04:23:50;;;;;;;2.42;1.20;;;;;;;24.70;32.17;98926.56;4982614;28;20023;-53
2024/01/07 04:26:16;;;;;;;3.40;1.40;;;;;;;24.71;32.10;98930.06;4985458;28;20030;-55
2024/01/07 04:28:42;;;;;;;2.67;1.20;;;;;;;24.68;32.08;98931.09;4983042;28;20675;-54
2024/01/07 04:31:07;;;;;;;2.70;1.30;;;;;;;24.63;32.19;98931.84;4982150;28;20076;-55
2024/01/07 04:33:32;;;;;;;2.42;1.17;;;;;;;24.60;32.41;98936.38;4982962;28;20034;-55
2024/01/07 04:35:59;;;;;;;2.50;1.17;;;;;;;24.61;32.34;98935.13;4985940;28;20060;-58
2024/01/07 04:38:24;;;;;;;2.95;1.27;;;;;;;24.62;32.40;98933.88;4980786;28;20065;-58
2024/01/07 04:40:50;;;;;;;2.35;1.23;;;;;;;24.59;32.52;98939.63;4980873;28;20026;-53
2024/01/07 04:43:16;;;;;;;2.72;1.30;;;;;;;24.62;32.46;98944.91;4980726;28;20030;-58
2024/01/07 04:45:41;;;;;;;2.15;1.20;;;;;;;24.60;32.46;98947.41;4980605;28;20034;-53
2024/01/07 04:48:07;;;;;;;2.38;1.17;;;;;;;24.61;32.58;98948.16;4986941;28;20034;-57
2024/01/07 04:50:32;;;;;;;2.30;1.17;;;;;;;24.63;32.46;98946.41;4984661;28;20072;-52
2024/01/07 04:52:57;;;;;;;2.72;1.20;;;;;;;24.64;32.40;98944.41;4984978;28;20289;-54
2024/01/07 04:55:23;;;;;;;1.83;1.10;;;;;;;24.64;32.35;98952.66;4982612;28;20030;-56
2024/01/07 04:57:48;;;;;;;2.72;1.30;;;;;;;24.64;32.33;98949.91;4982064;28;20053;-54
2024/01/07 05:00:14;;;;;;;2.92;1.48;;;;;;;24.63;32.35;98949.16;4983794;28;20446;-53
2024/01/07 05:02:39;;;;;;;2.10;1.10;;;;;;;24.65;32.27;98954.19;4982496;28;20065;-55
2024/01/07 05:05:05;;;;;;;2.13;1.10;;;;;;;24.65;32.58;98948.66;4985252;28;20065;-54
2024/01/07 05:07:30;;;;;;;3.05;1.27;;;;;;;24.67;32.30;98951.66;4981133;28;20054;-57
2024/01/07 05:09:55;;;;;;;2.78;1.20;;;;;;;24.66;32.49;98955.69;4981756;28;20027;-54
2024/01/07 05:12:21;;;;;;;1.90;1.05;;;;;;;24.70;32.42;98967.22;4982237;28;20037;-59
2024/01/07 05:14:46;;;;;;;1.38;1.00;;;;;;;24.72;32.40;98964.69;4980425;28;20041;-54
2024/01/07 05:17:12;;;;;;;2.10;1.10;;;;;;;24.69;32.41;98971.22;4988691;28;20032;-59
2024/01/07 05:19:40;;;;;;;2.45;1.17;;;;;;;24.69;32.42;98965.69;4978744;28;20030;-56
2024/01/07 05:22:05;;;;;;;2.33;1.17;;;;;;;24.70;32.36;98975.47;4982185;28;20113;-57
2024/01/07 05:24:31;;;;;;;2.30;1.15;;;;;;;24.71;32.54;98968.72;4983452;28;20027;-55
2024/01/07 05:26:56;;;;;;;2.65;1.30;;;;;;;24.71;32.54;98974.22;4981399;28;20031;-59
2024/01/07 05:29:22;;;;;;;2.67;1.20;;;;;;;24.74;32.39;98973.22;4984170;28;20457;-57
2024/01/07 05:31:47;;;;;;;2.17;1.20;;;;;;;24.71;32.37;98986.03;4977886;28;20033;-52
2024/01/07 05:34:12;;;;;;;1.98;1.10;;;;;;;24.75;32.36;98973.97;4984276;28;20033;-55
2024/01/07 05:36:38;;;;;;;2.30;1.10;;;;;;;24.73;32.37;98986.25;4987648;28;20042;-55
2024/01/07 05:39:04;;;;;;;2.08;1.05;;;;;;;24.72;32.43;98982.00;4980279;28;20053;-54
2024/01/07 05:41:29;;;;;;;1.83;1.00;;;;;;;24.71;32.51;98979.75;4978099;28;20087;-55
2024/01/07 05:43:54;;;;;;;2.10;1.02;;;;;;;24.71;32.50;98986.03;4983010;28;20027;-55
2024/01/07 05:46:20;;;;;;;2.78;1.10;;;;;;;24.72;32.65;98990.28;4983470;28;20030;-58
2024/01/07 05:48:49;;;;;;;2.33;1.20;;;;;;;24.75;32.53;98991.28;4982793;28;20367;-57
2024/01/07 05:51:14;;;;;;;2.08;1.00;;;;;;;24.75;32.62;98996.06;4981918;28;20145;-56
2024/01/07 05:53:40;;;;;;;2.15;1.10;;;;;;;24.73;32.48;98999.31;4979193;28;20038;-53
2024/01/07 05:56:05;;;;;;;2.03;1.10;;;;;;;24.77;32.39;98993.53;4978879;28;20431;-55
2024/01/07 05:58:31;;;;;;;1.88;1.02;;;;;;;24.76;32.58;99009.34;4982506;28;20022;-56
2024/01/07 06:00:56;;;;;;;1.90;1.10;;;;;;;24.76;32.68;99003.06;4980083;28;20025;-55
2024/01/07 06:03:22;;;;;;;1.50;1.00;;;;;;;24.75;32.66;99001.56;4988496;28;20019;-53
2024/01/07 06:05:47;;;;;;;2.08;1.08;;;;;;;24.79;32.42;98997.25;4978471;28;20026;-52
2024/01/07 06:08:13;;;;;;;2.03;1.10;;;;;;;24.76;32.65;99003.81;4990354;28;20691;-56
2024/01/07 06:10:38;;;;;;;2.08;1.10;;;;;;;24.82;32.50;99003.78;4989590;28;20022;-58
2024/01/07 06:13:04;;;;;;;1.52;1.00;;;;;;;24.81;32.50;99011.31;4984065;28;20022;-53
2024/01/07 06:15:29;;;;;;;1.77;1.02;;;;;;;24.85;32.41;99011.81;4981257;28;20021;-56
2024/01/07 06:17:55;;;;;;;2.08;1.10;;;;;;;24.80;32.62;99009.81;4981724;28;20033;-56
2024/01/07 06:20:20;;;;;;;2.03;1.00;;;;;;;24.75;32.34;99010.59;4985563;28;20045;-56
2024/01/07 06:22:46;;;;;;;3.67;1.25;;;;;;;24.70;32.41;99012.13;4984141;28;20101;-57
2024/01/07 06:25:11;;;;;;;3.63;1.50;;;;;;;24.66;32.15;99017.13;4983473;28;20026;-56
2024/01/07 06:27:38;;;;;;;3.30;1.40;;;;;;;24.64;32.08;99018.91;4981875;28;20393;-55
2024/01/07 06:30:04;;;;;;;4.22;1.70;;;;;;;24.60;32.04;99023.91;4996501;28;20030;-55
2024/01/07 06:32:32;;;;;;;3.88;1.80;;;;;;;24.58;32.04;99020.94;4989872;28;20128;-55
2024/01/07 06:34:57;;;;;;;4.00;1.85;;;;;;;24.55;31.78;99024.72;4984835;28;20110;-55
2024/01/07 06:37:23;;;;;;;4.03;1.80;;;;;;;24.54;31.65;99023.94;4978837;28;20129;-55
2024/01/07 06:39:48;;;;;;;4.22;2.10;;;;;;;24.53;31.37;99035.50;4987783;28;20022;-55
2024/01/07 06:42:13;;;;;;;4.75;2.25;;;;;;;24.51;31.51;99040.75;4990751;28;20064;-55
2024/01/07 06:44:39;;;;;;;4.53;2.08;;;;;;;24.51;31.42;99040.75;4993152;28;20026;-53
2024/01/07 06:47:04;;;;;;;4.70;2.40;;;;;;;24.50;31.22;99036.50;4991444;28;20022;-53
2024/01/07 06:49:29;;;;;;;4.85;2.22;;;;;;;24.47;31.06;99037.50;4985958;28;20029;-53
2024/01/07 06:51:55;;;;;;;4.50;2.25;;;;;;;24.43;31.11;99042.53;4987870;28;20029;-56
2024/01/07 06:54:20;;;;;;;4.95;2.40;;;;;;;24.39;31.02;99032.50;4996230;28;20105;-53
2024/01/07 06:56:45;;;;;;;5.72;2.45;;;;;;;24.38;30.88;99041.25;4992280;28;20080;-53
2024/01/07 06:59:11;;;;;;;4.28;2.28;;;;;;;24.36;30.73;99044.56;4983030;28;20033;-58
2024/01/07 07:01:37;;;;;;;5.30;2.45;;;;;;;24.35;30.29;99043.06;4992581;28;20363;-57
2024/01/07 07:04:02;;;;;;;4.80;2.45;;;;;;;24.36;30.37;99049.31;4992285;28;20033;-58
2024/01/07 07:06:27;;;;;;;5.40;2.30;;;;;;;24.37;30.47;99051.56;4987971;28;20057;-55
2024/01/07 07:08:53;;;;;;;4.50;2.17;;;;;;;24.36;30.50;99058.34;4983056;28;20409;-52
2024/01/07 07:11:19;;;;;;;5.78;2.15;;;;;;;24.33;30.48;99062.09;4993765;28;20041;-55
2024/01/07 07:13:44;;;;;;;4.35;2.22;;;;;;;24.36;30.53;99066.63;4991455;28;20034;-56
2024/01/07 07:16:10;;;;;;;4.57;2.10;;;;;;;24.37;30.52;99061.84;4987983;28;20069;-57
2024/01/07 07:18:35;;;;;;;4.25;2.17;;;;;;;24.34;30.54;99069.13;4990055;28;20418;-52
2024/01/07 07:21:00;;;;;;;4.10;2.10;;;;;;;24.35;30.57;99070.63;4983990;28;20034;-53
2024/01/07 07:23:26;;;;;;;4.57;2.00;;;;;;;24.32;30.53;99071.63;4991648;28;20022;-57
2024/01/07 07:25:51;;;;;;;4.15;2.03;;;;;;;24.33;30.64;99078.66;5004943;28;20047;-57
2024/01/07 07:28:17;;;;;;;4.70;2.10;;;;;;;24.35;30.53;99083.66;4984454;28;20093;-58
2024/01/07 07:30:43;;;;;;;4.50;2.10;;;;;;;24.32;30.77;99079.16;4994064;28;20060;-57
2024/01/07 07:33:08;;;;;;;4.60;2.20;;;;;;;24.31;31.16;99083.91;4989034;28;20038;-48
2024/01/07 07:35:33;;;;;;;6.35;2.28;;;;;;;24.38;30.91;99075.13;4989599;28;20032;-48
2024/01/07 07:37:59;;;;;;;3.90;1.80;;;;;;;24.44;30.89;99083.41;4984163;28;20030;-48
2024/01/07 07:40:24;;;;;;;4.70;2.08;;;;;;;24.51;31.02;99093.94;4984389;28;20030;-49
2024/01/07 07:42:49;;;;;;;4.47;1.98;;;;;;;24.61;30.88;99086.13;4985500;28;20036;-44
2024/01/07 07:45:15;;;;;;;7.35;2.10;;;;;;;24.61;31.23;99091.66;4978786;28;20038;-46
2024/01/07 07:47:44;;;;;;;5.20;1.92;;;;;;;24.58;31.28;99095.44;4986191;28;20065;-53
2024/01/07 07:50:10;;;;;;;4.15;1.75;;;;;;;24.62;31.56;99101.44;4979151;28;20393;-45
2024/01/07 07:52:35;;;;;;;4.82;1.95;;;;;;;24.60;31.56;99098.41;4975270;28;20030;-45
2024/01/07 07:55:00;;;;;;;4.20;1.90;;;;;;;24.59;31.58;99099.69;4975448;28;20045;-45
2024/01/07 07:57:26;;;;;;;6.10;2.05;;;;;;;24.64;31.74;99094.16;4988790;28;20019;-47
2024/01/07 07:59:51;;;;;;;3.80;1.80;;;;;;;24.67;31.87;99100.66;4987528;28;20393;-52
2024/01/07 08:02:17;;;;;;;3.58;1.65;;;;;;;24.69;31.98;99096.16;4977012;28;20409;-50
2024/01/07 08:04:43;;;;;;;5.53;2.08;;;;;;;24.71;31.96;99098.41;4984797;28;20019;-46
2024/01/07 08:07:09;;;;;;;4.57;1.90;;;;;;;24.71;32.11;99101.19;4981848;28;20065;-45
2024/01/07 08:09:36;;;;;;;5.72;2.00;;;;;;;24.71;32.02;99106.69;4978282;28;20053;-44
2024/01/07 08:12:02;;;;;;;4.50;1.90;;;;;;;24.70;32.11;99094.16;4973832;28;20038;-46
2024/01/07 08:14:28;;;;;;;4.30;2.03;;;;;;;24.67;32.13;99108.94;4971434;28;20033;-49
2024/01/07 08:16:54;;;;;;;4.72;1.90;;;;;;;24.65;32.04;99106.69;4973624;28;20109;-45
2024/01/07 08:19:20;;;;;;;4.10;1.90;;;;;;;24.65;32.37;99111.47;4976786;28;20037;-44
2024/01/07 08:21:45;;;;;;;3.50;1.67;;;;;;;24.66;32.21;99116.47;4989380;28;20037;-44
2024/01/07 08:24:11;;;;;;;5.85;1.90;;;;;;;24.70;32.12;99119.00;4987167;28;20053;-49
2024/01/07 08:26:36;;;;;;;4.13;1.80;;;;;;;24.64;31.90;99118.22;4988059;28;20034;-44
2024/01/07 08:29:02;;;;;;;4.10;1.75;;;;;;;24.60;32.17;99123.25;4987909;28;20484;-44
2024/01/07 08:31:27;;;;;;;4.25;1.90;;;;;;;24.61;32.07;99119.25;4986193;28;20083;-44
2024/01/07 08:33:52;;;;;;;5.97;1.95;;;;;;;24.62;32.10;99120.75;4982491;28;20034;-44
2024/01/07 08:36:18;;;;;;;4.43;2.20;;;;;;;24.59;32.14;99121.75;4986106;28;20042;-47
2024/01/07 08:38:43;;;;;;;5.90;2.20;;;;;;;24.58;32.27;99125.78;4982806;28;20075;-44
2024/01/07 08:41:09;;;;;;;4.38;1.88;;;;;;;24.57;32.20;99124.28;4983730;28;20036;-44
2024/01/07 08:43:34;;;;;;;4.15;2.00;;;;;;;24.55;32.26;99129.53;4981705;28;20022;-44
2024/01/07 08:46:00;;;;;;;4.00;2.00;;;;;;;24.54;32.44;99125.28;4993522;28;20626;-44
2024/01/07 08:48:25;;;;;;;4.18;1.90;;;;;;;24.55;32.28;99126.78;4982546;28;20057;-44
2024/01/07 08:50:51;;;;;;;4.57;1.90;;;;;;;24.52;32.42;99134.06;4983214;28;20026;-48
2024/01/07 08:53:16;;;;;;;4.50;2.00;;;;;;;24.51;32.54;99135.31;4983113;28;20028;-46
2024/01/07 08:55:41;;;;;;;4.55;1.90;;;;;;;24.51;32.34;99137.31;4978766;28;20403;-45
2024/01/07 08:58:07;;;;;;;4.10;1.90;;;;;;;24.51;32.56;99135.31;4980409;28;20023;-45
2024/01/07 09:00:32;;;;;;;4.10;2.00;;;;;;;24.51;32.42;99137.31;4973750;28;20029;-44
2024/01/07 09:02:57;;;;;;;4.35;1.88;;;;;;;24.52;32.42;99138.81;4972007;28;20030;-44
2024/01/07 09:05:24;;;;;;;4.63;1.73;;;;;;;24.49;32.56;99146.09;4972940;28;20030;-47
2024/01/07 09:07:49;;;;;;;4.10;1.90;;;;;;;24.48;32.62;99143.84;4979316;28;20097;-44
2024/01/07 09:10:15;;;;;;;3.78;1.75;;;;;;;24.49;32.58;99153.63;4981826;28;20101;-44
2024/01/07 09:12:40;;;;;;;4.18;1.80;;;;;;;24.49;32.62;99148.84;4982677;28;20032;-44
2024/01/07 09:15:10;;;;;;;3.58;1.70;;;;;;;24.48;32.69;99155.63;4983107;28;20023;-44
2024/01/07 09:17:36;;;;;;;4.75;1.80;;;;;;;24.47;32.65;99159.63;4987803;28;20093;-44
2024/01/07 09:20:04;;;;;;;4.25;2.08;;;;;;;24.45;32.74;99164.16;4980983;28;20060;-44
2024/01/07 09:22:29;;;;;;;4.50;1.80;;;;;;;24.45;32.83;99167.66;4983358;28;20023;-46
2024/01/07 09:24:55;;;;;;;3.72;1.90;;;;;;;24.44;32.79;99162.63;4983048;28;20475;-44
2024/01/07 09:27:21;;;;;;;3.95;1.83;;;;;;;24.44;32.85;99171.66;4981730;28;20490;-47
2024/01/07 09:29:46;;;;;;;3.78;1.75;;;;;;;24.43;32.72;99164.66;4976703;28;20034;-45
2024/01/07 09:32:12;;;;;;;3.78;1.73;;;;;;;24.43;32.84;99174.94;4982023;28;20033;-45
2024/01/07 09:34:37;;;;;;;4.40;1.88;;;;;;;24.44;32.71;99168.16;4987400;28;20026;-45
2024/01/07 09:37:03;;;;;;;3.60;1.77;;;;;;;24.44;32.79;99168.16;4989942;28;20031;-47
2024/01/07 09:39:28;;;;;;;4.10;1.80;;;;;;;24.45;33.23;99177.94;4993744;28;20721;-44
2024/01/07 09:41:53;;;;;;;4.30;1.98;;;;;;;24.42;32.77;99176.19;4984512;28;20058;-47
2024/01/07 09:44:19;;;;;;;3.83;1.77;;;;;;;24.43;32.79;99181.19;4980973;28;20129;-48
2024/01/07 09:46:45;;;;;;;4.10;1.90;;;;;;;24.43;32.90;99175.69;4984656;28;20018;-46
2024/01/07 09:49:11;;;;;;;4.10;1.80;;;;;;;24.45;32.76;99175.19;4990812;28;20085;-44
2024/01/07 09:51:39;;;;;;;3.78;1.70;;;;;;;24.44;32.86;99177.19;4981279;28;20403;-45
2024/01/07 09:54:04;;;;;;;3.65;1.60;;;;;;;24.46;32.90;99182.19;4980844;28;20081;-44
2024/01/07 09:56:40;;;;;;;4.00;1.88;;;;;;;24.47;32.84;99186.47;4993859;28;20031;-45
2024/01/07 09:59:06;;;;;;;4.55;2.00;;;;;;;24.48;32.85;99182.47;5010771;28;20026;-46
2024/01/07 10:01:31;;;;;;;4.13;1.63;;;;;;;24.44;32.91;99176.44;4988797;28;20027;-43
2024/01/07 10:03:57;;;;;;;4.20;1.90;;;;;;;24.43;32.83;99180.44;4980568;28;20014;-46
2024/01/07 10:06:22;;;;;;;4.03;1.70;;;;;;;24.44;32.83;99165.41;4988465;28;20035;-42
2024/01/07 10:08:47;;;;;;;3.38;1.63;;;;;;;24.43;33.15;99172.16;4989802;28;20014;-42
2024/01/07 10:11:16;;;;;;;3.72;1.80;;;;;;;24.43;33.11;99172.16;4984627;28;20026;-45
2024/01/07 10:13:41;;;;;;;3.50;1.60;;;;;;;24.43;33.05;99172.16;4987226;28;20022;-43
2024/01/07 10:16:07;;;;;;;3.85;1.67;;;;;;;24.43;32.93;99170.16;4983130;28;20061;-44
2024/01/07 10:18:34;;;;;;;3.77;1.73;;;;;;;24.42;32.93;99174.16;4991424;28;20039;-44
2024/01/07 10:21:06;;;;;;;3.53;1.60;;;;;;;24.43;32.88;99174.94;4998575;28;20092;-46
2024/01/07 10:23:31;;;;;;;2.75;1.50;;;;;;;24.42;32.94;99174.16;4995543;28;20037;-43
2024/01/07 10:25:57;;;;;;;4.20;1.55;;;;;;;24.43;32.99;99172.91;4991123;28;20026;-43
2024/01/07 10:28:23;;;;;;;3.85;1.85;;;;;;;24.46;32.95;99171.16;4982755;28;20109;-44
2024/01/07 10:30:48;;;;;;;3.70;1.65;;;;;;;24.43;32.94;99178.44;4988888;28;20494;-44
2024/01/07 10:33:14;;;;;;;3.47;1.65;;;;;;;24.42;33.09;99173.41;4983117;28;20558;-47
2024/01/07 10:35:39;;;;;;;3.33;1.60;;;;;;;24.45;33.02;99172.41;4970128;28;20496;-45
2024/01/07 10:38:04;;;;;;;4.00;1.80;;;;;;;24.43;33.08;99170.16;4984013;28;20027;-44
2024/01/07 10:40:30;;;;;;;3.33;1.70;;;;;;;24.42;33.03;99174.16;4982410;28;20031;-47
2024/01/07 10:42:56;;;;;;;3.78;1.75;;;;;;;24.42;33.19;99174.16;4987937;28;20037;-44
2024/01/07 10:45:22;;;;;;;3.58;1.67;;;;;;;24.41;33.00;99160.88;4990948;28;20030;-44
2024/01/07 10:47:54;;;;;;;3.80;1.70;;;;;;;24.41;33.13;99175.44;4989405;28;20022;-44
2024/01/07 10:50:20;;;;;;;4.28;1.88;;;;;;;24.42;33.13;99170.66;5009612;28;20307;-45
2024/01/07 10:52:49;;;;;;;4.18;1.90;;;;;;;24.41;33.16;99160.88;4989677;28;20615;-44
2024/01/07 10:55:15;;;;;;;5.03;1.77;;;;;;;24.43;33.02;99175.69;4986400;28;20054;-44
2024/01/07 10:57:45;;;;;;;3.92;1.90;;;;;;;24.41;33.16;99164.41;4995678;28;20024;-46
2024/01/07 11:00:18;;;;;;;2.95;1.60;;;;;;;24.44;33.17;99165.41;4983065;28;20113;-45
2024/01/07 11:03:28;;;;;;;3.20;1.45;;;;;;;24.46;33.04;99168.41;5013915;28;20061;-44
2024/01/07 11:05:59;;;;;;;4.30;1.80;;;;;;;24.42;33.15;99160.38;5010888;28;20054;-44
2024/01/07 11:08:43;;;;;;;3.45;1.70;;;;;;;24.42;33.04;99162.38;5001398;28;20033;-44
2024/01/07 11:11:15;;;;;;;3.80;1.80;;;;;;;24.42;33.28;99167.91;4966759;28;20050;-44
2024/01/07 11:13:41;;;;;;;3.45;1.77;;;;;;;24.42;33.32;99165.16;4988710;28;20195;-44
2024/01/07 11:16:10;;;;;;;3.33;1.60;;;;;;;24.43;33.22;99166.66;4989730;28;20049;-48
2024/01/07 11:18:40;;;;;;;3.63;1.75;;;;;;;24.42;33.36;99162.38;4983763;28;20425;-47
2024/01/07 11:21:06;;;;;;;4.03;1.80;;;;;;;24.41;33.32;99163.63;4984337;28;20054;-46
2024/01/07 11:23:39;;;;;;;3.45;1.70;;;;;;;24.43;33.13;99163.91;4979876;28;20037;-45
2024/01/07 11:26:05;;;;;;;3.90;1.90;;;;;;;24.41;33.33;99163.63;4979535;28;20038;-44
2024/01/07 11:28:52;;;;;;;3.47;1.65;;;;;;;24.43;33.25;99163.91;4981899;28;20022;-44